»·PEaware :: N276ND KYKM-KPAE

N276ND :: KYKM-KPAE

FLIGHT INFORMATION

Flight Status: Arrived
Operator: Privately registered:
United States
More flights under this callsign
Pilot: Giorgi S. (28323)
Aircraft: MOONEY M-20 201 202 205 220 ATS MSE
(M20P)
More flights by this aircraft type
Origin: KYKM Yakima Air Term/Mcallister
United States
Destination: KPAE Paine Field/Snohomish Co.
United States
More flights between these airports :: More routes between these airports
Route: +WENAS7 TITON V4 BLAKO
File this flight plan on PilotEdge
Remarks:
Altitude:
(Current/Filed)
10,000ft
Speed:
(Current/Filed)
170kts
Departed: 11-Apr-20 12:38 PM
Arrived: 11-Apr-20 01:37 PM
Distance/Time
Traveled:
107nm/0:59
Distance/Time
To Go:
Arrived

Flight Plot

Page will automatically refresh every two minutes.


Map Options




Map Legend


Flown Route
Filed Route
Departure Airport
Arrival Airport
Navaid (VOR, NDB)
Fix

Horizontal Profiles

Position Reports

Time Latitude Longitude Heading Altitude Ground
Speed
11-Apr-20 12:19 46.570326 -120.543506 89 1068ft 0kts
11-Apr-20 12:20 46.570326 -120.543506 89 1068ft 0kts
11-Apr-20 12:21 46.570326 -120.543506 89 1068ft 0kts
11-Apr-20 12:22 46.570326 -120.543506 89 1068ft 0kts
11-Apr-20 12:23 46.570326 -120.543506 89 1068ft 0kts
11-Apr-20 12:24 46.570326 -120.543506 89 1068ft 0kts
11-Apr-20 12:25 46.570326 -120.543506 89 1068ft 0kts
11-Apr-20 12:26 46.570326 -120.543506 89 1068ft 0kts
11-Apr-20 12:27 46.570326 -120.543506 89 1068ft 0kts
11-Apr-20 12:28 46.570326 -120.543506 89 1068ft 0kts
11-Apr-20 12:29 46.570326 -120.543506 89 1068ft 0kts
11-Apr-20 12:30 46.570326 -120.543506 89 1068ft 0kts
11-Apr-20 12:31 46.570326 -120.543506 89 1068ft 0kts
11-Apr-20 12:32 46.570326 -120.543506 89 1068ft 0kts
11-Apr-20 12:33 46.570326 -120.543506 89 1068ft 0kts
11-Apr-20 12:34 46.570326 -120.543506 89 1068ft 0kts
11-Apr-20 12:35 46.568347 -120.538015 109 1058ft 28kts
11-Apr-20 12:36 46.566488 -120.531485 179 1045ft 0kts
11-Apr-20 12:37 46.568130 -120.542251 293 1133ft 94kts
11-Apr-20 12:38 46.578303 -120.579619 284 2422ft 106kts
11-Apr-20 12:39 46.583305 -120.622313 287 3621ft 122kts
11-Apr-20 12:40 46.589432 -120.667461 338 4814ft 114kts
11-Apr-20 12:41 46.622480 -120.648911 21 5568ft 138kts
11-Apr-20 12:42 46.658522 -120.634244 332 6266ft 133kts
11-Apr-20 12:43 46.683150 -120.675678 310 6908ft 137kts
11-Apr-20 12:44 46.705285 -120.722100 308 7408ft 143kts
11-Apr-20 12:45 46.706782 -120.761828 168 8379ft 157kts
11-Apr-20 12:46 46.669387 -120.724819 147 9111ft 162kts
11-Apr-20 12:47 46.653530 -120.678478 17 9875ft 141kts
11-Apr-20 12:48 46.689608 -120.698375 313 10092ft 154kts
11-Apr-20 12:49 46.716034 -120.750182 305 10087ft 159kts
11-Apr-20 12:50 46.741086 -120.802968 305 10085ft 157kts
11-Apr-20 12:51 46.766471 -120.856616 305 10085ft 163kts
11-Apr-20 12:52 46.792376 -120.911314 305 10083ft 163kts
11-Apr-20 12:53 46.818161 -120.966039 305 10081ft 163kts
11-Apr-20 12:54 46.843637 -121.020216 305 10107ft 160kts
11-Apr-20 12:55 46.868724 -121.073655 305 10105ft 158kts
11-Apr-20 12:56 46.893335 -121.125981 306 10102ft 155kts
11-Apr-20 12:57 46.917628 -121.177838 307 10102ft 153kts
11-Apr-20 12:58 46.941685 -121.229381 308 10117ft 153kts
11-Apr-20 12:59 46.965795 -121.281144 308 10152ft 155kts
11-Apr-20 13:00 46.990452 -121.334172 309 10189ft 159kts
11-Apr-20 13:01 47.015605 -121.388388 309 10226ft 162kts
11-Apr-20 13:02 47.041315 -121.443909 309 10264ft 166kts
11-Apr-20 13:03 47.067528 -121.500625 310 10266ft 169kts
11-Apr-20 13:04 47.094069 -121.558172 310 10263ft 171kts
11-Apr-20 13:05 47.120991 -121.616624 310 10197ft 176kts
11-Apr-20 13:06 47.148449 -121.676439 310 10122ft 176kts
11-Apr-20 13:07 47.176320 -121.737258 310 10013ft 177kts
11-Apr-20 13:08 47.214388 -121.774003 341 10013ft 167kts
11-Apr-20 13:09 47.256775 -121.799926 341 10013ft 167kts
11-Apr-20 13:10 47.293622 -121.821762 341 10016ft 166kts
11-Apr-20 13:11 47.325650 -121.839113 341 10017ft 165kts
11-Apr-20 13:12 47.350007 -121.874438 294 10022ft 175kts
11-Apr-20 13:13 47.361299 -121.928822 292 9920ft 157kts
11-Apr-20 13:14 47.368864 -121.968363 294 9408ft 118kts
11-Apr-20 13:15 47.375502 -122.001965 294 8899ft 117kts
11-Apr-20 13:16 47.381596 -122.032928 294 8435ft 117kts
11-Apr-20 13:17 47.388022 -122.065265 293 7992ft 129kts
11-Apr-20 13:18 47.397044 -122.111311 292 7386ft 135kts
11-Apr-20 13:19 47.411612 -122.186405 291 6335ft 120kts
11-Apr-20 13:20 47.419655 -122.227712 290 6024ft 134kts
11-Apr-20 13:21 47.429939 -122.280932 289 6016ft 148kts
11-Apr-20 13:22 47.461793 -122.305691 356 6017ft 148kts
11-Apr-20 13:23 47.500603 -122.303707 2 6017ft 148kts
11-Apr-20 13:25 47.538609 -122.300373 3 6018ft 148kts
11-Apr-20 13:26 47.576710 -122.296996 3 6017ft 148kts
11-Apr-20 13:27 47.615931 -122.293537 3 5955ft 141kts
11-Apr-20 13:28 47.643749 -122.291122 2 5420ft 97kts
11-Apr-20 13:29 47.671590 -122.288645 3 4981ft 115kts
11-Apr-20 13:30 47.700885 -122.286017 3 4446ft 125kts
11-Apr-20 13:31 47.733235 -122.283107 3 3675ft 129kts
11-Apr-20 13:32 47.776492 -122.282318 358 2792ft 98kts
11-Apr-20 13:33 47.811734 -122.284301 358 2201ft 99kts
11-Apr-20 13:34 47.847595 -122.284641 357 1586ft 86kts
11-Apr-20 13:35 47.875987 -122.285070 359 1017ft 83kts
11-Apr-20 13:36 47.897990 -122.285367 359 564ft 73kts
11-Apr-20 13:37 47.906321 -122.283794 82 581ft 0kts
11-Apr-20 13:38 47.906321 -122.283794 82 581ft 0kts
11-Apr-20 13:39 47.906265 -122.283435 135 582ft 3kts
11-Apr-20 13:40 47.903104 -122.282091 71 587ft 0kts

Navigation Log

Ident Type
Flight plan parsing failed, navigation log unavailable